Time;durP1;ratioP1;P1;durP2;ratioP2;P2;SDS_P1;SDS_P2;PMS_P1;PMS_P2;Temp;Humidity;BMP_temperature;BMP_pressure;BME280_temperature;BME280_humidity;BME280_pressure;Samples;Min_cycle;Max_cycle;Signal;HPM_P1;HPM_P2
2022/12/02 04:00:45;;;;;;;;;;;16.90;50.20;;;;;;5077580;22;45945;-61
2022/12/02 04:03:11;;;;;;;;;;;16.90;50.30;;;;;;5000775;28;45212;-60
2022/12/02 04:05:36;;;;;;;;;;;16.90;50.30;;;;;;5039918;28;44980;-59
2022/12/02 04:08:02;;;;;;;;;;;16.90;50.30;;;;;;5023265;28;45094;-61
2022/12/02 04:10:27;;;;;;;;;;;16.90;50.30;;;;;;5022949;28;45036;-60
2022/12/02 04:12:53;;;;;;;;;;;16.90;50.30;;;;;;5047213;28;44970;-54
2022/12/02 04:15:19;;;;;;;;;;;16.90;50.30;;;;;;5037176;28;45397;-57
2022/12/02 04:17:44;;;;;;;;;;;16.90;50.30;;;;;;5055731;28;45134;-58
2022/12/02 04:20:10;;;;;;;;;;;16.90;50.30;;;;;;5054408;28;45019;-55
2022/12/02 04:22:36;;;;;;;;;;;16.90;50.30;;;;;;5054086;28;45073;-58
2022/12/02 04:25:03;;;;;;;;;;;16.90;50.30;;;;;;5050975;28;45124;-58
2022/12/02 04:27:29;;;;;;;;;;;16.90;50.40;;;;;;5051771;28;44842;-59
2022/12/02 04:29:55;;;;;;;;;;;16.90;50.30;;;;;;5054695;28;45317;-58
2022/12/02 04:32:20;;;;;;;;;;;16.90;50.30;;;;;;5050463;28;45006;-59
2022/12/02 04:34:45;;;;;;;;;;;16.90;50.30;;;;;;5055603;28;45178;-61
2022/12/02 04:37:11;;;;;;;;;;;16.90;50.30;;;;;;5056003;28;45158;-60
2022/12/02 04:39:37;;;;;;;;;;;16.80;50.30;;;;;;5054207;28;45549;-55
2022/12/02 04:42:02;;;;;;;;;;;16.80;50.30;;;;;;5037451;28;44999;-57
2022/12/02 04:44:28;;;;;;;;;;;16.80;50.30;;;;;;5058638;28;44906;-57
2022/12/02 04:46:53;;;;;;;;;;;16.80;50.30;;;;;;5061680;28;45745;-55
2022/12/02 04:49:19;;;;;;;;;;;16.80;50.30;;;;;;5046250;28;45624;-55
2022/12/02 04:51:44;;;;;;;;;;;16.80;50.40;;;;;;5049838;28;45137;-61
2022/12/02 04:54:10;;;;;;;;;;;16.80;51.00;;;;;;5057999;28;45156;-64
2022/12/02 04:56:36;;;;;;;;;;;16.80;50.40;;;;;;5056382;28;45288;-57
2022/12/02 04:59:01;;;;;;;;;;;16.80;50.40;;;;;;5050251;28;46675;-61
2022/12/02 05:01:27;;;;;;;;;;;16.80;50.40;;;;;;5054057;28;45077;-56
2022/12/02 05:03:52;;;;;;;;;;;16.70;50.40;;;;;;5055157;28;45148;-61
2022/12/02 05:06:18;;;;;;;;;;;16.70;50.40;;;;;;5054975;28;44794;-59
2022/12/02 05:08:43;;;;;;;;;;;16.70;50.30;;;;;;5059206;28;45634;-59
2022/12/02 05:11:09;;;;;;;;;;;16.70;50.30;;;;;;5054293;28;45055;-60
2022/12/02 05:13:34;;;;;;;;;;;16.70;50.40;;;;;;5050247;28;44951;-55
2022/12/02 05:16:00;;;;;;;;;;;16.70;50.40;;;;;;5054112;28;45361;-54
2022/12/02 05:18:25;;;;;;;;;;;16.70;50.40;;;;;;5049814;28;45559;-57
2022/12/02 05:20:51;;;;;;;;;;;16.70;50.40;;;;;;5056337;28;45210;-58
2022/12/02 05:23:17;;;;;;;;;;;16.70;50.40;;;;;;5048941;28;45620;-57
2022/12/02 05:25:42;;;;;;;;;;;16.70;50.40;;;;;;5054550;28;45217;-55
2022/12/02 05:28:08;;;;;;;;;;;16.70;50.40;;;;;;5058381;28;45196;-59
2022/12/02 05:30:33;;;;;;;;;;;16.60;50.40;;;;;;5035338;28;45000;-56
2022/12/02 05:32:59;;;;;;;;;;;16.60;50.40;;;;;;5040240;28;45305;-56
2022/12/02 05:35:24;;;;;;;;;;;16.60;50.50;;;;;;5059878;28;45172;-56
2022/12/02 05:37:50;;;;;;;;;;;16.60;50.50;;;;;;5056891;28;46136;-54
2022/12/02 05:40:16;;;;;;;;;;;16.60;50.40;;;;;;5048270;28;44803;-57
2022/12/02 05:42:41;;;;;;;;;;;16.60;50.40;;;;;;5044965;28;45434;-61
2022/12/02 05:45:14;;;;;;;;;;;16.60;51.00;;;;;;5058046;28;44999;-59
2022/12/02 05:47:39;;;;;;;;;;;16.60;50.40;;;;;;5060929;28;45306;-59
2022/12/02 05:50:11;;;;;;;;;;;16.60;50.50;;;;;;5056762;27;44681;-55
2022/12/02 05:52:37;;;;;;;;;;;16.60;50.50;;;;;;5053021;28;45032;-60
2022/12/02 05:55:06;;;;;;;;;;;16.60;50.50;;;;;;5049796;28;45054;-55
2022/12/02 05:57:32;;;;;;;;;;;16.60;50.50;;;;;;5056128;28;45897;-57
2022/12/02 06:00:09;;;;;;;;;;;16.60;50.50;;;;;;5052582;28;45067;-58
2022/12/02 06:02:37;;;;;;;;;;;16.60;50.50;;;;;;5061553;28;44962;-60
2022/12/02 06:05:11;;;;;;;;;;;16.50;50.50;;;;;;5038091;28;45058;-58
2022/12/02 06:07:37;;;;;;;;;;;16.60;50.50;;;;;;5044910;28;46320;-55
2022/12/02 06:10:20;;;;;;;;;;;16.60;50.50;;;;;;5063139;28;45021;-57
2022/12/02 06:12:45;;;;;;;;;;;16.60;50.50;;;;;;5061451;28;44874;-58
2022/12/02 06:15:14;;;;;;;;;;;16.50;50.50;;;;;;5058991;28;45306;-57
2022/12/02 06:17:39;;;;;;;;;;;16.50;50.50;;;;;;5056581;28;46355;-58
2022/12/02 06:20:05;;;;;;;;;;;16.50;50.50;;;;;;5038542;28;44825;-58
2022/12/02 06:22:31;;;;;;;;;;;16.50;50.50;;;;;;5037557;28;45185;-60
2022/12/02 06:24:58;;;;;;;;;;;16.50;50.60;;;;;;5041499;28;45287;-54
2022/12/02 06:27:25;;;;;;;;;;;16.50;51.20;;;;;;5046519;28;45951;-59
2022/12/02 06:29:57;;;;;;;;;;;16.50;50.60;;;;;;5037616;28;45291;-60
2022/12/02 06:32:23;;;;;;;;;;;16.50;50.60;;;;;;5042141;28;44809;-57
2022/12/02 06:34:49;;;;;;;;;;;16.50;50.60;;;;;;5043536;28;44742;-60
2022/12/02 06:37:22;;;;;;;;;;;16.40;50.60;;;;;;5062059;28;46237;-59
2022/12/02 06:39:48;;;;;;;;;;;16.40;50.60;;;;;;5036910;28;45150;-59
2022/12/02 06:42:19;;;;;;;;;;;16.40;50.60;;;;;;5056244;28;44930;-55
2022/12/02 06:45:03;;;;;;;;;;;16.40;50.60;;;;;;5055482;28;45026;-57
2022/12/02 06:47:31;;;;;;;;;;;16.40;50.60;;;;;;5033905;28;46477;-59
2022/12/02 06:49:58;;;;;;;;;;;16.40;50.60;;;;;;5057921;28;44992;-58
2022/12/02 06:52:23;;;;;;;;;;;16.40;50.60;;;;;;5037586;28;45056;-56
2022/12/02 06:54:50;;;;;;;;;;;16.40;50.60;;;;;;5050112;28;45121;-55
2022/12/02 06:57:15;;;;;;;;;;;16.40;50.60;;;;;;5039218;28;45019;-58
2022/12/02 06:59:41;;;;;;;;;;;16.40;50.60;;;;;;5044578;28;45295;-60
2022/12/02 07:02:13;;;;;;;;;;;16.40;50.60;;;;;;5027756;28;45333;-57
2022/12/02 07:04:46;;;;;;;;;;;16.40;50.60;;;;;;5051031;28;45400;-60
2022/12/02 07:07:13;;;;;;;;;;;16.40;50.60;;;;;;5036843;28;45564;-59
2022/12/02 07:09:39;;;;;;;;;;;16.40;50.60;;;;;;5039389;28;44864;-60
2022/12/02 07:12:09;;;;;;;;;;;16.40;50.60;;;;;;5054695;28;45173;-59
2022/12/02 07:14:44;;;;;;;;;;;16.30;50.60;;;;;;5058850;28;44970;-59
2022/12/02 07:17:25;;;;;;;;;;;16.40;50.70;;;;;;5052832;27;46135;-58
2022/12/02 07:20:11;;;;;;;;;;;16.30;50.70;;;;;;5053089;28;44914;-59
2022/12/02 07:22:37;;;;;;;;;;;16.40;50.60;;;;;;5042263;28;45004;-58
2022/12/02 07:25:08;;;;;;;;;;;16.40;50.60;;;;;;5060408;27;45387;-55
2022/12/02 07:27:37;;;;;;;;;;;16.40;50.60;;;;;;5051700;28;44994;-57
2022/12/02 07:30:03;;;;;;;;;;;16.50;50.50;;;;;;5036793;28;44990;-53
2022/12/02 07:32:28;;;;;;;;;;;16.60;50.20;;;;;;5024060;28;45233;-59
2022/12/02 07:34:54;;;;;;;;;;;16.80;50.00;;;;;;5063271;28;45253;-60
2022/12/02 07:37:20;;;;;;;;;;;17.00;49.80;;;;;;5054292;28;45275;-54
2022/12/02 07:39:45;;;;;;;;;;;17.10;49.60;;;;;;5058731;28;45268;-58
2022/12/02 07:42:13;;;;;;;;;;;17.30;49.40;;;;;;5056071;28;45000;-58
2022/12/02 07:44:39;;;;;;;;;;;17.50;49.20;;;;;;5055543;28;45110;-59
2022/12/02 07:47:05;;;;;;;;;;;17.60;48.90;;;;;;5036760;28;45852;-54
2022/12/02 07:49:31;;;;;;;;;;;17.80;48.80;;;;;;5051191;27;45127;-55
2022/12/02 07:51:56;;;;;;;;;;;17.90;48.60;;;;;;5043194;28;45623;-57
2022/12/02 07:54:22;;;;;;;;;;;18.00;48.40;;;;;;5053152;28;45088;-58
2022/12/02 07:56:47;;;;;;;;;;;18.20;48.20;;;;;;5035230;28;45608;-56
2022/12/02 07:59:13;;;;;;;;;;;18.20;48.00;;;;;;5053583;28;44765;-54
2022/12/02 08:01:39;;;;;;;;;;;18.30;48.10;;;;;;5056845;28;45990;-57
2022/12/02 08:04:04;;;;;;;;;;;18.30;48.10;;;;;;5055598;28;45218;-58
2022/12/02 08:06:30;;;;;;;;;;;18.30;48.20;;;;;;5062720;28;45269;-57
2022/12/02 08:08:56;;;;;;;;;;;18.40;48.10;;;;;;5056856;28;45251;-54
2022/12/02 08:11:22;;;;;;;;;;;18.50;48.10;;;;;;5049133;28;45253;-57
2022/12/02 08:13:47;;;;;;;;;;;18.60;47.90;;;;;;5062658;27;45213;-56
2022/12/02 08:16:13;;;;;;;;;;;18.80;47.80;;;;;;5050435;28;45204;-54
2022/12/02 08:18:39;;;;;;;;;;;18.90;47.60;;;;;;5054915;28;44991;-58
2022/12/02 08:21:04;;;;;;;;;;;19.00;47.40;;;;;;5062572;28;45185;-55
2022/12/02 08:23:30;;;;;;;;;;;19.10;47.30;;;;;;5061723;28;45109;-57
2022/12/02 08:25:55;;;;;;;;;;;19.30;47.20;;;;;;5055134;28;45594;-60
2022/12/02 08:28:21;;;;;;;;;;;19.40;47.00;;;;;;5040498;28;44893;-57
2022/12/02 08:30:47;;;;;;;;;;;19.60;46.90;;;;;;5062077;28;45023;-57
2022/12/02 08:33:12;;;;;;;;;;;19.60;46.60;;;;;;5058754;28;45438;-58
2022/12/02 08:35:38;;;;;;;;;;;19.80;46.50;;;;;;5048086;27;45246;-57
2022/12/02 08:38:05;;;;;;;;;;;19.90;46.40;;;;;;5041026;27;45067;-62
2022/12/02 08:40:30;;;;;;;;;;;19.90;46.30;;;;;;5052453;27;45232;-59
2022/12/02 08:42:56;;;;;;;;;;;19.90;46.20;;;;;;5022297;28;44974;-60
2022/12/02 08:45:22;;;;;;;;;;;19.90;46.30;;;;;;5042827;28;47655;-55
2022/12/02 08:47:47;;;;;;;;;;;19.90;46.30;;;;;;5052725;27;44679;-58
2022/12/02 08:50:13;;;;;;;;;;;20.00;46.40;;;;;;5044402;28;44960;-57
2022/12/02 08:52:38;;;;;;;;;;;20.10;46.30;;;;;;5053442;28;45404;-56
2022/12/02 08:55:04;;;;;;;;;;;20.20;46.20;;;;;;5061902;28;45165;-54
2022/12/02 08:57:30;;;;;;;;;;;20.30;46.00;;;;;;5064412;27;45153;-54
2022/12/02 08:59:55;;;;;;;;;;;20.40;45.90;;;;;;5059694;27;45015;-60
2022/12/02 09:02:21;;;;;;;;;;;20.50;45.70;;;;;;5042079;28;45454;-57
2022/12/02 09:04:47;;;;;;;;;;;20.70;45.60;;;;;;5053720;28;45015;-58
2022/12/02 09:07:13;;;;;;;;;;;20.80;45.50;;;;;;5044150;28;45001;-57
2022/12/02 09:09:38;;;;;;;;;;;20.90;45.30;;;;;;5059592;28;44783;-57
2022/12/02 09:12:04;;;;;;;;;;;20.90;45.10;;;;;;5033909;28;45616;-61
2022/12/02 09:14:29;;;;;;;;;;;21.10;45.00;;;;;;5051534;28;46524;-59
2022/12/02 09:16:55;;;;;;;;;;;21.20;44.90;;;;;;5050664;28;45079;-57
2022/12/02 09:19:20;;;;;;;;;;;21.30;44.80;;;;;;5057235;28;45014;-59
2022/12/02 09:21:46;;;;;;;;;;;21.30;44.70;;;;;;5053777;28;45045;-60
2022/12/02 09:24:11;;;;;;;;;;;21.30;44.60;;;;;;5053239;28;46077;-55
2022/12/02 09:26:37;;;;;;;;;;;21.30;44.80;;;;;;5059917;28;45184;-59
2022/12/02 09:29:02;;;;;;;;;;;21.30;44.80;;;;;;5054500;28;44857;-58
2022/12/02 09:31:28;;;;;;;;;;;21.30;44.90;;;;;;5039551;28;45262;-53
2022/12/02 09:33:53;;;;;;;;;;;21.40;44.90;;;;;;5051368;28;45719;-56
2022/12/02 09:36:19;;;;;;;;;;;21.50;44.80;;;;;;5050764;28;44790;-58
2022/12/02 09:38:45;;;;;;;;;;;21.60;45.20;;;;;;5056009;28;45155;-58
2022/12/02 09:41:10;;;;;;;;;;;21.70;44.50;;;;;;5026786;28;45102;-62
2022/12/02 09:43:36;;;;;;;;;;;21.80;44.50;;;;;;5061851;28;45944;-53
2022/12/02 09:46:01;;;;;;;;;;;21.80;44.30;;;;;;5054399;28;45081;-55
2022/12/02 09:48:27;;;;;;;;;;;21.90;44.30;;;;;;5053877;28;45004;-59
2022/12/02 09:50:52;;;;;;;;;;;22.00;44.20;;;;;;5056620;27;45570;-58
2022/12/02 09:53:18;;;;;;;;;;;22.00;44.20;;;;;;5032822;28;45560;-55
2022/12/02 09:55:43;;;;;;;;;;;22.10;44.10;;;;;;5055541;28;45321;-60
2022/12/02 09:58:11;;;;;;;;;;;22.20;44.10;;;;;;5054423;28;44855;-53
2022/12/02 10:00:36;;;;;;;;;;;22.20;44.00;;;;;;5020813;28;45127;-56
2022/12/02 10:03:02;;;;;;;;;;;22.30;44.00;;;;;;5049300;28;45185;-55
2022/12/02 10:05:27;;;;;;;;;;;22.40;43.90;;;;;;5038056;28;45238;-57
2022/12/02 10:07:54;;;;;;;;;;;22.40;43.80;;;;;;5038593;28;44973;-58
2022/12/02 10:10:23;;;;;;;;;;;22.50;43.80;;;;;;5061355;28;45234;-58
2022/12/02 10:12:49;;;;;;;;;;;22.50;43.60;;;;;;5051932;28;46303;-55
2022/12/02 10:15:22;;;;;;;;;;;22.40;43.60;;;;;;5037645;28;45166;-55
2022/12/02 10:17:47;;;;;;;;;;;22.30;43.70;;;;;;5034584;28;44934;-58
2022/12/02 10:20:15;;;;;;;;;;;22.40;43.80;;;;;;5035235;28;46044;-57
2022/12/02 10:23:00;;;;;;;;;;;22.50;43.80;;;;;;5055397;28;45182;-60
2022/12/02 10:25:29;;;;;;;;;;;22.60;43.70;;;;;;5039044;28;44914;-56
2022/12/02 10:27:55;;;;;;;;;;;22.60;43.60;;;;;;5057537;28;45233;-57
2022/12/02 10:30:22;;;;;;;;;;;22.70;43.50;;;;;;5054139;28;44948;-58
2022/12/02 10:32:54;;;;;;;;;;;22.70;43.50;;;;;;5052167;27;45805;-53
2022/12/02 10:35:20;;;;;;;;;;;22.80;43.50;;;;;;5036959;28;45615;-56
2022/12/02 10:37:45;;;;;;;;;;;22.80;43.40;;;;;;5040490;28;45187;-56
2022/12/02 10:40:15;;;;;;;;;;;22.90;43.40;;;;;;5060771;28;45450;-59
2022/12/02 10:42:41;;;;;;;;;;;22.90;43.30;;;;;;5053694;28;45311;-58
2022/12/02 10:45:20;;;;;;;;;;;23.00;43.20;;;;;;5060045;28;44848;-55
2022/12/02 10:47:46;;;;;;;;;;;23.00;43.10;;;;;;5034904;27;44784;-54
2022/12/02 10:50:16;;;;;;;;;;;23.10;43.10;;;;;;5036629;28;45023;-53
2022/12/02 10:52:44;;;;;;;;;;;23.10;43.00;;;;;;5035316;28;46114;-58
2022/12/02 10:55:09;;;;;;;;;;;23.20;43.00;;;;;;5033631;28;44887;-60
2022/12/02 10:57:35;;;;;;;;;;;23.30;42.90;;;;;;5040129;28;44998;-57
2022/12/02 11:00:03;;;;;;;;;;;23.30;42.90;;;;;;5056516;28;44946;-59
2022/12/02 11:02:37;;;;;;;;;;;23.30;42.70;;;;;;5034133;28;46232;-55
2022/12/02 11:05:13;;;;;;;;;;;23.30;42.60;;;;;;5030558;28;45301;-60
2022/12/02 11:07:39;;;;;;;;;;;23.30;42.60;;;;;;5047517;27;45242;-54
2022/12/02 11:10:04;;;;;;;;;;;23.30;42.80;;;;;;5043414;28;45605;-58
2022/12/02 11:12:35;;;;;;;;;;;23.20;42.90;;;;;;5035854;28;45431;-57
2022/12/02 11:15:00;;;;;;;;;;;23.20;43.00;;;;;;5022977;28;45134;-63
2022/12/02 11:17:53;;;;;;;;;;;23.30;43.20;;;;;;5050105;28;45100;-59
2022/12/02 11:20:19;;;;;;;;;;;23.30;43.10;;;;;;5040843;28;45717;-54
2022/12/02 11:22:48;;;;;;;;;;;23.30;42.90;;;;;;5063073;28;46365;-56
2022/12/02 11:25:32;;;;;;;;;;;23.30;42.90;;;;;;5051246;28;45229;-60
2022/12/02 11:28:16;;;;;;;;;;;23.40;42.80;;;;;;5055795;28;44909;-62
2022/12/02 11:30:41;;;;;;;;;;;23.40;42.70;;;;;;5038441;28;45402;-63
2022/12/02 11:33:10;;;;;;;;;;;23.50;42.70;;;;;;5024060;28;46921;-61
2022/12/02 11:35:55;;;;;;;;;;;23.60;42.50;;;;;;5066680;28;44664;-60
2022/12/02 11:38:22;;;;;;;;;;;23.70;42.40;;;;;;5057197;28;45177;-61
2022/12/02 11:40:48;;;;;;;;;;;23.80;42.30;;;;;;5036070;28;45159;-61
2022/12/02 11:43:37;;;;;;;;;;;23.90;42.20;;;;;;5058371;28;46117;-62
2022/12/02 11:46:04;;;;;;;;;;;23.90;42.00;;;;;;5066392;28;44888;-61
2022/12/02 11:48:29;;;;;;;;;;;24.00;42.00;;;;;;5034874;28;45001;-60
2022/12/02 11:50:55;;;;;;;;;;;24.00;41.90;;;;;;5038422;28;44716;-60
2022/12/02 11:53:20;;;;;;;;;;;24.10;41.90;;;;;;5064160;27;45835;-60
2022/12/02 11:55:46;;;;;;;;;;;24.10;41.80;;;;;;5045484;28;45091;-60
2022/12/02 11:58:21;;;;;;;;;;;24.10;41.70;;;;;;5021412;28;44915;-60
2022/12/02 12:01:06;;;;;;;;;;;24.20;41.70;;;;;;5059053;27;44916;-61
2022/12/02 12:03:33;;;;;;;;;;;24.20;41.70;;;;;;5049841;28;45138;-60
2022/12/02 12:06:11;;;;;;;;;;;24.10;41.50;;;;;;5048694;28;44953;-58
2022/12/02 12:08:37;;;;;;;;;;;24.10;41.80;;;;;;5043060;28;44783;-60
2022/12/02 12:11:15;;;;;;;;;;;24.00;41.80;;;;;;5054777;28;45091;-59
2022/12/02 12:14:00;;;;;;;;;;;24.00;41.90;;;;;;5064143;28;45397;-62
2022/12/02 12:16:26;;;;;;;;;;;24.10;41.90;;;;;;5037662;28;45051;-62
2022/12/02 12:18:51;;;;;;;;;;;24.10;41.80;;;;;;5041817;28;44570;-60
2022/12/02 12:21:29;;;;;;;;;;;24.20;41.70;;;;;;5030346;28;45015;-59
2022/12/02 12:23:55;;;;;;;;;;;24.30;41.70;;;;;;5061183;28;45284;-59
2022/12/02 12:26:31;;;;;;;;;;;24.40;41.60;;;;;;5041956;28;45392;-58
2022/12/02 12:29:00;;;;;;;;;;;24.40;41.50;;;;;;5055664;28;45189;-59
2022/12/02 12:31:25;;;;;;;;;;;24.50;41.50;;;;;;5030661;28;45054;-60
2022/12/02 12:33:51;;;;;;;;;;;24.50;41.40;;;;;;5038576;28;45275;-61
2022/12/02 12:36:16;;;;;;;;;;;24.50;41.40;;;;;;5046128;28;45162;-60
2022/12/02 12:38:42;;;;;;;;;;;24.60;41.30;;;;;;5066814;28;45271;-60
2022/12/02 12:41:07;;;;;;;;;;;24.60;41.20;;;;;;5062799;28;44692;-60
2022/12/02 12:43:33;;;;;;;;;;;24.60;41.30;;;;;;5059564;28;45886;-60
2022/12/02 12:45:58;;;;;;;;;;;24.60;41.20;;;;;;5065059;27;45953;-59
2022/12/02 12:48:24;;;;;;;;;;;24.60;41.10;;;;;;5064457;28;45256;-60
2022/12/02 12:50:50;;;;;;;;;;;24.60;41.20;;;;;;5063668;28;46335;-60
2022/12/02 12:53:15;;;;;;;;;;;24.60;41.20;;;;;;5061255;27;45512;-61
2022/12/02 12:55:41;;;;;;;;;;;24.60;41.20;;;;;;5045436;28;44696;-60
2022/12/02 12:58:07;;;;;;;;;;;24.50;41.10;;;;;;5065378;27;44715;-61
2022/12/02 13:00:32;;;;;;;;;;;24.50;41.30;;;;;;5062189;28;45475;-60
2022/12/02 13:03:00;;;;;;;;;;;24.50;41.30;;;;;;5062015;28;45220;-61
2022/12/02 13:05:25;;;;;;;;;;;24.50;41.20;;;;;;5038413;28;45022;-62
2022/12/02 13:07:51;;;;;;;;;;;24.50;41.40;;;;;;5040753;28;45133;-61
2022/12/02 13:10:17;;;;;;;;;;;24.50;41.40;;;;;;5057302;28;45198;-61
2022/12/02 13:12:46;;;;;;;;;;;24.60;41.50;;;;;;5045615;28;45699;-58
2022/12/02 13:15:12;;;;;;;;;;;24.60;41.20;;;;;;5063272;28;44909;-59
2022/12/02 13:17:38;;;;;;;;;;;24.70;41.20;;;;;;5066591;28;45201;-59
2022/12/02 13:20:04;;;;;;;;;;;24.70;41.10;;;;;;5044252;28;44975;-62
2022/12/02 13:22:29;;;;;;;;;;;24.80;41.10;;;;;;5059435;27;45226;-61
2022/12/02 13:25:15;;;;;;;;;;;24.80;41.00;;;;;;5031725;28;45014;-60
2022/12/02 13:27:41;;;;;;;;;;;24.90;40.90;;;;;;5062929;28;45114;-60
2022/12/02 13:30:07;;;;;;;;;;;24.90;40.90;;;;;;5040964;28;45015;-61
2022/12/02 13:32:32;;;;;;;;;;;24.80;40.70;;;;;;5059832;28;45181;-61
2022/12/02 13:34:58;;;;;;;;;;;24.80;41.00;;;;;;5062743;27;45058;-62
2022/12/02 13:37:24;;;;;;;;;;;24.70;41.10;;;;;;5064949;28;44782;-62
2022/12/02 13:39:49;;;;;;;;;;;24.60;41.90;;;;;;5066465;28;44952;-61
2022/12/02 13:42:14;;;;;;;;;;;24.70;41.30;;;;;;5065898;27;46704;-61
2022/12/02 13:44:40;;;;;;;;;;;24.70;41.30;;;;;;5068112;28;45546;-60
2022/12/02 13:47:05;;;;;;;;;;;24.80;41.30;;;;;;5048359;28;44942;-59
2022/12/02 13:49:31;;;;;;;;;;;24.80;41.10;;;;;;5047188;28;44879;-60
2022/12/02 13:51:57;;;;;;;;;;;24.90;41.10;;;;;;5063653;27;46291;-59
2022/12/02 13:54:22;;;;;;;;;;;24.90;41.00;;;;;;5061722;28;44992;-58
2022/12/02 13:56:48;;;;;;;;;;;25.00;41.00;;;;;;5043381;28;45471;-60
2022/12/02 13:59:14;;;;;;;;;;;25.00;40.90;;;;;;5017544;28;45509;-59
2022/12/02 14:01:39;;;;;;;;;;;25.00;40.90;;;;;;5063590;28;45893;-60
2022/12/02 14:04:05;;;;;;;;;;;25.00;40.80;;;;;;5065776;28;45016;-59
2022/12/02 14:06:31;;;;;;;;;;;25.00;40.80;;;;;;5044951;28;45252;-58
2022/12/02 14:08:56;;;;;;;;;;;25.00;40.80;;;;;;5068336;28;45021;-59
2022/12/02 14:11:21;;;;;;;;;;;25.00;40.80;;;;;;5056373;28;45103;-58
2022/12/02 14:13:47;;;;;;;;;;;25.00;40.80;;;;;;5048475;28;44750;-61
2022/12/02 14:16:13;;;;;;;;;;;25.00;40.80;;;;;;5059645;28;44883;-58
2022/12/02 14:18:38;;;;;;;;;;;25.00;40.90;;;;;;5032446;28;46185;-62
2022/12/02 14:21:04;;;;;;;;;;;25.00;40.90;;;;;;5027507;28;46428;-59
2022/12/02 14:23:30;;;;;;;;;;;25.00;41.00;;;;;;5037903;28;44997;-60
2022/12/02 14:25:55;;;;;;;;;;;25.00;41.00;;;;;;5061830;28;44858;-59
2022/12/02 14:28:21;;;;;;;;;;;24.90;41.00;;;;;;5044826;28;44985;-60
2022/12/02 14:30:46;;;;;;;;;;;24.90;41.10;;;;;;5061585;28;45257;-60
2022/12/02 14:33:12;;;;;;;;;;;24.90;41.20;;;;;;5068841;28;44664;-58
2022/12/02 14:35:37;;;;;;;;;;;24.90;41.10;;;;;;5042848;28;45037;-60
2022/12/02 14:38:03;;;;;;;;;;;24.80;41.20;;;;;;5036767;28;44891;-62
2022/12/02 14:40:30;;;;;;;;;;;24.70;41.40;;;;;;5044160;28;45139;-62
2022/12/02 14:42:56;;;;;;;;;;;24.70;41.60;;;;;;5032040;27;44986;-61
2022/12/02 14:45:21;;;;;;;;;;;24.70;41.60;;;;;;5059848;27;45305;-62
2022/12/02 14:47:47;;;;;;;;;;;24.70;41.50;;;;;;5058811;28;46241;-62
2022/12/02 14:50:12;;;;;;;;;;;24.80;41.50;;;;;;5052150;28;45502;-59
2022/12/02 14:52:38;;;;;;;;;;;24.80;41.40;;;;;;5060494;28;45177;-61
2022/12/02 14:55:04;;;;;;;;;;;24.90;41.30;;;;;;5060001;28;45242;-60
2022/12/02 14:57:30;;;;;;;;;;;25.00;41.20;;;;;;5041618;28;45194;-60
2022/12/02 14:59:55;;;;;;;;;;;25.00;41.20;;;;;;5065895;28;45831;-60
2022/12/02 15:02:20;;;;;;;;;;;25.10;41.80;;;;;;5056858;28;44785;-60
2022/12/02 15:04:46;;;;;;;;;;;25.10;41.10;;;;;;5064338;28;44715;-60
2022/12/02 15:07:11;;;;;;;;;;;25.10;41.00;;;;;;5040392;28;44819;-63
2022/12/02 15:09:37;;;;;;;;;;;25.10;41.00;;;;;;5061495;28;45433;-61
2022/12/02 15:12:03;;;;;;;;;;;25.10;40.80;;;;;;5055077;27;44870;-61
2022/12/02 15:14:28;;;;;;;;;;;24.90;41.00;;;;;;5036145;28;45278;-60
2022/12/02 15:16:54;;;;;;;;;;;24.80;41.20;;;;;;5060104;28;44750;-60
2022/12/02 15:19:19;;;;;;;;;;;24.70;41.50;;;;;;5064561;28;45513;-61
2022/12/02 15:21:45;;;;;;;;;;;24.60;41.70;;;;;;5048771;28;44912;-61
2022/12/02 15:24:10;;;;;;;;;;;24.50;41.90;;;;;;5043172;28;45091;-61
2022/12/02 15:26:36;;;;;;;;;;;24.40;42.10;;;;;;5063291;28;44895;-61
2022/12/02 15:29:01;;;;;;;;;;;24.30;42.20;;;;;;5042188;28;45704;-60
2022/12/02 15:31:27;;;;;;;;;;;24.20;42.40;;;;;;5063770;28;45949;-59
2022/12/02 15:33:52;;;;;;;;;;;24.10;42.60;;;;;;5065217;28;45047;-59
2022/12/02 15:36:18;;;;;;;;;;;24.00;42.70;;;;;;5058584;28;44761;-59
2022/12/02 15:38:43;;;;;;;;;;;24.00;42.80;;;;;;5064064;28;45366;-59
2022/12/02 15:41:09;;;;;;;;;;;23.80;42.80;;;;;;5063131;28;44708;-60
2022/12/02 15:43:34;;;;;;;;;;;23.70;42.90;;;;;;5059579;27;44988;-60
2022/12/02 15:46:00;;;;;;;;;;;23.70;43.10;;;;;;5060765;28;45073;-60
2022/12/02 15:48:25;;;;;;;;;;;23.60;43.20;;;;;;5056869;28;46291;-60
2022/12/02 15:50:51;;;;;;;;;;;23.50;43.30;;;;;;5062078;28;44966;-59
2022/12/02 15:53:16;;;;;;;;;;;23.50;43.40;;;;;;5063591;27;44627;-60
2022/12/02 15:55:42;;;;;;;;;;;23.30;43.50;;;;;;5047159;28;44932;-59
2022/12/02 15:58:07;;;;;;;;;;;23.30;43.60;;;;;;5063734;28;45597;-59
2022/12/02 16:00:33;;;;;;;;;;;23.20;43.60;;;;;;5058968;28;44967;-60
2022/12/02 16:02:58;;;;;;;;;;;23.20;43.70;;;;;;5026494;28;45816;-60
2022/12/02 16:05:24;;;;;;;;;;;23.10;43.80;;;;;;5039088;28;44982;-58
2022/12/02 16:07:49;;;;;;;;;;;23.00;44.00;;;;;;5024243;28;47038;-58
2022/12/02 16:10:15;;;;;;;;;;;23.00;44.10;;;;;;5028731;28;45000;-58
2022/12/02 16:12:40;;;;;;;;;;;22.90;44.10;;;;;;5034987;28;45549;-58
2022/12/02 16:15:06;;;;;;;;;;;22.80;44.30;;;;;;5017757;28;46064;-60
2022/12/02 16:17:33;;;;;;;;;;;22.80;44.40;;;;;;5037402;28;45969;-60
2022/12/02 16:19:58;;;;;;;;;;;22.70;44.50;;;;;;5035898;28;45126;-60
2022/12/02 16:22:24;;;;;;;;;;;22.60;44.50;;;;;;5024774;28;45056;-60
2022/12/02 16:24:50;;;;;;;;;;;22.50;44.60;;;;;;5020941;28;45549;-61
2022/12/02 16:27:16;;;;;;;;;;;22.50;44.80;;;;;;5029817;28;44890;-59
2022/12/02 16:29:41;;;;;;;;;;;22.40;44.80;;;;;;5014626;28;45111;-60
2022/12/02 16:32:07;;;;;;;;;;;22.30;44.90;;;;;;5033164;28;45048;-59
2022/12/02 16:34:32;;;;;;;;;;;22.30;45.00;;;;;;5039479;28;45009;-60
2022/12/02 16:36:58;;;;;;;;;;;22.20;45.00;;;;;;5038743;28;45147;-59
2022/12/02 16:39:23;;;;;;;;;;;22.20;45.10;;;;;;5035496;28;44667;-58
2022/12/02 16:41:49;;;;;;;;;;;22.10;45.20;;;;;;5041734;28;44982;-59
2022/12/02 16:44:14;;;;;;;;;;;22.00;45.30;;;;;;5030300;28;45431;-60
2022/12/02 16:46:40;;;;;;;;;;;22.00;45.30;;;;;;5034340;28;45085;-59
2022/12/02 16:49:08;;;;;;;;;;;21.90;45.40;;;;;;5039071;28;45018;-60
2022/12/02 16:51:34;;;;;;;;;;;21.80;45.50;;;;;;5038861;28;44950;-60
2022/12/02 16:54:00;;;;;;;;;;;21.80;45.60;;;;;;5041437;28;44862;-57
2022/12/02 16:56:25;;;;;;;;;;;21.80;45.60;;;;;;5018972;28;46130;-59
2022/12/02 16:58:51;;;;;;;;;;;21.70;45.60;;;;;;5034622;28;45086;-58
2022/12/02 17:01:16;;;;;;;;;;;21.60;45.60;;;;;;5043826;28;45235;-59
2022/12/02 17:03:42;;;;;;;;;;;21.60;45.70;;;;;;5051604;27;44830;-59
2022/12/02 17:06:07;;;;;;;;;;;21.60;45.80;;;;;;5052698;27;45399;-57
2022/12/02 17:08:33;;;;;;;;;;;21.50;45.70;;;;;;5047792;27;45600;-59
2022/12/02 17:10:58;;;;;;;;;;;21.50;45.80;;;;;;5055273;28;45054;-59
2022/12/02 17:13:24;;;;;;;;;;;21.40;45.80;;;;;;5055306;27;45300;-60
2022/12/02 17:15:49;;;;;;;;;;;21.40;46.00;;;;;;5020910;28;46850;-61
2022/12/02 17:18:15;;;;;;;;;;;21.40;46.00;;;;;;5032599;28;44684;-60
2022/12/02 17:20:40;;;;;;;;;;;21.30;46.00;;;;;;5055880;28;45109;-63
2022/12/02 17:23:06;;;;;;;;;;;21.20;46.10;;;;;;5051595;27;45013;-59
2022/12/02 17:25:32;;;;;;;;;;;21.20;46.20;;;;;;5053617;28;45639;-59
2022/12/02 17:27:57;;;;;;;;;;;21.20;46.20;;;;;;5050465;28;45021;-59
2022/12/02 17:30:23;;;;;;;;;;;21.10;46.20;;;;;;5021660;28;45024;-59
2022/12/02 17:32:48;;;;;;;;;;;21.10;46.20;;;;;;5056697;28;45570;-59
2022/12/02 17:35:14;;;;;;;;;;;21.00;46.30;;;;;;5056293;28;46460;-59
2022/12/02 17:37:39;;;;;;;;;;;21.00;46.40;;;;;;5055615;28;45144;-58
2022/12/02 17:40:05;;;;;;;;;;;20.90;46.40;;;;;;5057671;28;45148;-58
2022/12/02 17:42:31;;;;;;;;;;;20.90;46.50;;;;;;5058892;28;46066;-58
2022/12/02 17:44:56;;;;;;;;;;;20.80;46.60;;;;;;5056318;28;45404;-59
2022/12/02 17:47:22;;;;;;;;;;;20.80;46.60;;;;;;5055212;28;44831;-59
2022/12/02 17:49:47;;;;;;;;;;;20.80;46.60;;;;;;5053817;28;44713;-58
2022/12/02 17:52:13;;;;;;;;;;;20.70;46.60;;;;;;5058453;28;45178;-59
2022/12/02 17:54:38;;;;;;;;;;;20.70;46.70;;;;;;5033824;28;45020;-58
2022/12/02 17:57:04;;;;;;;;;;;20.60;46.70;;;;;;5028472;28;44937;-58
2022/12/02 17:59:29;;;;;;;;;;;20.60;46.80;;;;;;5053573;28;46524;-59
2022/12/02 18:01:55;;;;;;;;;;;20.60;46.90;;;;;;5040790;28;45484;-59
2022/12/02 18:04:20;;;;;;;;;;;20.50;46.80;;;;;;5051432;28;45702;-59
2022/12/02 18:06:46;;;;;;;;;;;20.50;46.90;;;;;;5051643;28;44796;-60
2022/12/02 18:09:11;;;;;;;;;;;20.40;47.00;;;;;;5027074;28;45183;-60
2022/12/02 18:11:37;;;;;;;;;;;20.40;47.00;;;;;;5055989;28;45285;-59
2022/12/02 18:14:03;;;;;;;;;;;20.40;47.10;;;;;;5060897;28;45141;-59